Time;durP1;ratioP1;P1;durP2;ratioP2;P2;SDS_P1;SDS_P2;PMS_P1;PMS_P2;Temp;Humidity;BMP_temperature;BMP_pressure;BME280_temperature;BME280_humidity;BME280_pressure;Samples;Min_cycle;Max_cycle;Signal;HPM_P1;HPM_P2
2023/09/18 00:02:19;;;;;;;15.00;11.70;;;;;;;10.88;100.00;101273.21;104736;1267;73178;-60
2023/09/18 00:04:47;;;;;;;14.20;10.90;;;;;;;10.78;100.00;101274.72;104717;1267;62046;-61
2023/09/18 00:07:14;;;;;;;14.60;10.80;;;;;;;10.70;100.00;101274.70;104704;1274;61231;-61
2023/09/18 00:09:42;;;;;;;16.30;11.20;;;;;;;10.64;100.00;101271.48;104844;1267;73589;-62
2023/09/18 00:12:09;;;;;;;15.90;11.00;;;;;;;10.61;100.00;101272.52;104415;1273;66585;-60
2023/09/18 00:14:37;;;;;;;17.30;11.60;;;;;;;10.57;100.00;101273.06;104998;1267;71214;-60
2023/09/18 00:17:04;;;;;;;17.60;12.10;;;;;;;10.56;100.00;101272.89;104852;1267;62754;-61
2023/09/18 00:19:33;;;;;;;14.10;11.50;;;;;;;10.56;100.00;101272.49;104749;1267;61264;-60
2023/09/18 00:22:00;;;;;;;15.80;11.40;;;;;;;10.56;100.00;101270.77;104982;1273;74687;-61
2023/09/18 00:24:28;;;;;;;19.20;10.80;;;;;;;10.56;100.00;101270.28;105481;1267;65753;-61
2023/09/18 00:26:55;;;;;;;12.90;10.20;;;;;;;10.55;100.00;101274.23;104854;1267;72618;-62
2023/09/18 00:29:22;;;;;;;13.40;10.10;;;;;;;10.52;100.00;101271.35;105802;1267;409380;-61
2023/09/18 00:31:49;;;;;;;13.60;10.50;;;;;;;10.50;100.00;101272.30;105985;1270;61303;-60
2023/09/18 00:34:16;;;;;;;14.70;9.60;;;;;;;10.47;100.00;101271.36;105405;1267;74672;-62
2023/09/18 00:36:43;;;;;;;12.60;9.00;;;;;;;10.44;100.00;101270.60;104536;1267;67725;-63
2023/09/18 00:39:10;;;;;;;16.10;10.40;;;;;;;10.42;100.00;101272.91;104710;1267;72324;-60
2023/09/18 00:41:37;;;;;;;9.90;8.30;;;;;;;10.43;100.00;101271.25;104693;1267;61566;-60
2023/09/18 00:44:05;;;;;;;13.00;9.70;;;;;;;10.46;100.00;101272.68;104911;1267;61371;-60
2023/09/18 00:46:32;;;;;;;11.60;8.80;;;;;;;10.49;100.00;101272.02;104788;1267;74645;-62
2023/09/18 00:48:59;;;;;;;12.30;9.80;;;;;;;10.50;100.00;101270.02;105242;1267;67256;-61
2023/09/18 00:51:26;;;;;;;16.50;11.60;;;;;;;10.50;100.00;101273.34;104733;1272;72661;-59
2023/09/18 00:53:54;;;;;;;17.00;12.40;;;;;;;10.49;100.00;101271.99;104997;1267;61271;-60
2023/09/18 00:56:21;;;;;;;17.00;12.70;;;;;;;10.48;100.00;101273.31;104578;1268;61378;-60
2023/09/18 00:58:51;;;;;;;16.70;11.60;;;;;;;10.48;100.00;101272.98;104911;1267;73525;-61
2023/09/18 01:01:22;;;;;;;17.50;12.80;;;;;;;10.47;100.00;101271.69;104441;1267;67391;-59
2023/09/18 01:03:51;;;;;;;16.40;11.40;;;;;;;10.47;100.00;101268.77;105271;1272;72724;-59
2023/09/18 01:06:20;;;;;;;16.80;12.00;;;;;;;10.45;100.00;101270.15;104785;1267;61733;-59
2023/09/18 01:08:50;;;;;;;17.30;11.70;;;;;;;10.43;100.00;101268.13;105088;1267;61271;-61
2023/09/18 01:11:46;;;;;;;20.00;12.70;;;;;;;10.41;100.00;101268.83;104514;1267;75592;-59
2023/09/18 01:14:39;;;;;;;22.80;13.90;;;;;;;10.37;100.00;101268.72;104794;1267;66458;-61
2023/09/18 01:17:07;;;;;;;16.50;11.60;;;;;;;10.33;100.00;101270.85;104791;1267;72511;-58
2023/09/18 01:19:44;;;;;;;18.40;11.30;;;;;;;10.30;100.00;101273.73;104744;1267;61377;-58
2023/09/18 01:22:16;;;;;;;16.90;12.90;;;;;;;10.27;100.00;101275.63;104969;1267;61361;-60
2023/09/18 01:24:44;;;;;;;17.60;12.00;;;;;;;10.26;100.00;101275.27;105059;1273;74556;-58
2023/09/18 01:27:16;;;;;;;16.30;10.80;;;;;;;10.22;100.00;101276.95;105009;1267;67164;-58
2023/09/18 01:29:44;;;;;;;17.00;11.50;;;;;;;10.17;100.00;101270.88;104574;1273;72766;-60
2023/09/18 01:32:11;;;;;;;15.90;10.30;;;;;;;10.13;100.00;101276.00;104474;1267;63458;-60
2023/09/18 01:34:44;;;;;;;16.80;10.80;;;;;;;10.12;100.00;101272.30;105004;1267;61172;-60
2023/09/18 01:37:12;;;;;;;12.30;10.40;;;;;;;10.10;100.00;101268.58;104726;1267;75370;-59
2023/09/18 01:39:39;;;;;;;15.70;11.30;;;;;;;10.09;100.00;101274.36;104747;1267;67105;-61
2023/09/18 01:42:06;;;;;;;11.40;9.90;;;;;;;10.06;100.00;101273.71;104788;1270;71596;-61
2023/09/18 01:44:34;;;;;;;13.00;8.90;;;;;;;10.05;100.00;101270.59;104938;1267;62216;-59
2023/09/18 01:47:02;;;;;;;11.90;9.30;;;;;;;10.05;100.00;101275.83;104709;1267;61115;-61
2023/09/18 01:49:32;;;;;;;12.30;9.20;;;;;;;10.04;100.00;101273.15;104760;1272;74580;-61
2023/09/18 01:51:59;;;;;;;16.10;10.40;;;;;;;10.02;100.00;101277.80;104647;1272;67364;-59
2023/09/18 01:54:26;;;;;;;13.30;9.50;;;;;;;10.00;100.00;101281.83;104794;1267;73096;-61
2023/09/18 01:56:54;;;;;;;11.90;8.80;;;;;;;9.97;100.00;101281.91;104607;1270;61591;-59
2023/09/18 01:59:21;;;;;;;10.90;8.20;;;;;;;9.95;100.00;101282.98;104649;1268;61221;-60
2023/09/18 02:01:50;;;;;;;10.00;8.40;;;;;;;9.93;100.00;101281.32;104610;1274;73623;-59
2023/09/18 02:04:18;;;;;;;11.60;8.80;;;;;;;9.93;100.00;101282.66;105114;1267;66355;-60
2023/09/18 02:07:05;;;;;;;11.60;8.90;;;;;;;9.93;100.00;101282.84;104698;1268;72780;-61
2023/09/18 02:09:32;;;;;;;12.60;8.90;;;;;;;9.93;100.00;101284.09;104679;1271;61374;-60
2023/09/18 02:12:00;;;;;;;15.50;8.60;;;;;;;9.93;100.00;101285.44;104983;1267;61170;-61
2023/09/18 02:14:26;;;;;;;13.10;8.70;;;;;;;9.91;100.00;101285.66;104567;1270;75195;-59
2023/09/18 02:16:53;;;;;;;11.70;8.40;;;;;;;9.88;100.00;101288.67;104625;1268;67229;-59
2023/09/18 02:19:21;;;;;;;10.00;7.80;;;;;;;9.85;100.00;101289.25;104850;1267;72746;-61
2023/09/18 02:21:48;;;;;;;9.20;7.50;;;;;;;9.81;100.00;101289.45;104313;1267;61262;-60
2023/09/18 02:24:15;;;;;;;11.60;8.40;;;;;;;9.74;100.00;101287.16;104721;1268;61176;-59
2023/09/18 02:26:42;;;;;;;14.00;9.20;;;;;;;9.67;100.00;101289.64;106427;1267;75111;-59
2023/09/18 02:29:11;;;;;;;10.80;8.20;;;;;;;9.61;100.00;101288.82;104714;1267;66344;-59
2023/09/18 02:31:38;;;;;;;11.60;8.00;;;;;;;9.57;100.00;101291.88;104723;1273;71422;-61
2023/09/18 02:34:07;;;;;;;11.00;7.50;;;;;;;9.50;100.00;101288.02;105217;1272;61155;-62
2023/09/18 02:36:34;;;;;;;12.00;9.20;;;;;;;9.43;100.00;101287.09;104656;1272;61163;-61
2023/09/18 02:39:01;;;;;;;12.80;9.60;;;;;;;9.38;100.00;101283.79;104750;1267;75370;-61
2023/09/18 02:41:28;;;;;;;12.00;8.30;;;;;;;9.34;100.00;101288.02;104831;1272;67237;-60
2023/09/18 02:43:55;;;;;;;11.60;8.50;;;;;;;9.30;100.00;101288.41;104758;1267;71488;-61
2023/09/18 02:46:22;;;;;;;10.60;8.80;;;;;;;9.27;100.00;101287.14;104722;1268;61208;-61
2023/09/18 02:48:49;;;;;;;11.60;8.60;;;;;;;9.25;100.00;101288.36;104392;1268;61314;-62
2023/09/18 02:51:18;;;;;;;12.90;8.50;;;;;;;9.22;100.00;101290.34;104616;1267;73378;-61
2023/09/18 02:53:45;;;;;;;14.80;8.90;;;;;;;9.19;100.00;101292.89;104603;1267;67738;-62
2023/09/18 02:56:13;;;;;;;11.40;8.20;;;;;;;9.17;100.00;101291.93;104626;1272;71371;-63
2023/09/18 02:58:40;;;;;;;13.10;8.60;;;;;;;9.15;100.00;101293.36;104565;1267;63044;-62
2023/09/18 03:01:08;;;;;;;16.30;8.60;;;;;;;9.15;100.00;101295.74;104332;1268;61234;-62
2023/09/18 03:03:35;;;;;;;11.70;9.00;;;;;;;9.17;100.00;101298.48;104433;1267;75983;-64
2023/09/18 03:06:06;;;;;;;18.60;9.40;;;;;;;9.20;100.00;101303.10;104670;1268;67243;-61
2023/09/18 03:08:33;;;;;;;12.70;9.50;;;;;;;9.22;100.00;101303.06;104810;1267;70295;-61
2023/09/18 03:11:00;;;;;;;10.70;8.50;;;;;;;9.25;100.00;101302.27;104495;1271;62255;-62
2023/09/18 03:13:28;;;;;;;12.10;8.60;;;;;;;9.26;100.00;101304.52;104940;1268;61393;-61
2023/09/18 03:15:58;;;;;;;14.20;8.40;;;;;;;9.29;100.00;101307.27;104589;1268;74699;-64
2023/09/18 03:18:26;;;;;;;12.90;9.10;;;;;;;9.32;100.00;101304.70;105042;1271;67447;-62
2023/09/18 03:20:53;;;;;;;12.30;9.40;;;;;;;9.39;100.00;101307.27;104779;1268;72812;-61
2023/09/18 03:23:20;;;;;;;13.80;9.10;;;;;;;9.51;100.00;101310.61;104896;1270;61913;-63
2023/09/18 03:25:47;;;;;;;11.10;8.50;;;;;;;9.71;100.00;101313.02;104721;1267;61306;-59
2023/09/18 03:28:19;;;;;;;15.00;9.60;;;;;;;10.01;100.00;101314.39;104796;1268;73819;-63
2023/09/18 03:30:48;;;;;;;11.40;8.60;;;;;;;10.37;100.00;101314.75;104740;1267;67186;-62
2023/09/18 03:33:16;;;;;;;13.00;9.40;;;;;;;10.78;100.00;101318.01;104815;1268;72799;-64
2023/09/18 03:35:48;;;;;;;11.50;8.90;;;;;;;11.22;100.00;101320.95;104716;1267;61279;-62
2023/09/18 03:38:17;;;;;;;13.70;9.00;;;;;;;11.72;100.00;101328.59;104699;1267;61332;-61
2023/09/18 03:40:45;;;;;;;12.70;8.70;;;;;;;12.26;100.00;101325.88;104588;1268;74708;-60
2023/09/18 03:43:12;;;;;;;12.30;8.30;;;;;;;12.84;100.00;101327.09;104639;1273;65954;-64
2023/09/18 03:45:42;;;;;;;13.10;9.10;;;;;;;13.44;100.00;101327.80;104733;1272;72577;-65
2023/09/18 03:48:10;;;;;;;12.00;9.20;;;;;;;14.04;100.00;101330.70;105040;1267;61341;-61
2023/09/18 03:50:38;;;;;;;17.10;8.10;;;;;;;14.61;100.00;101333.61;104690;1267;61226;-64
2023/09/18 03:53:06;;;;;;;10.40;8.00;;;;;;;15.12;100.00;101333.63;104775;1267;74751;-62
2023/09/18 03:55:33;;;;;;;8.80;7.50;;;;;;;15.63;100.00;101332.70;104877;1268;65734;-63
2023/09/18 03:58:00;;;;;;;9.70;8.20;;;;;;;16.14;100.00;101328.17;104703;1267;71377;-62
2023/09/18 04:00:27;;;;;;;11.30;8.10;;;;;;;16.73;100.00;101325.88;104544;1267;61336;-61
2023/09/18 04:02:54;;;;;;;10.90;7.60;;;;;;;17.30;100.00;101312.49;104340;1270;61250;-59
2023/09/18 04:05:22;;;;;;;10.40;6.80;;;;;;;17.77;100.00;101300.02;104622;1267;73611;-64
2023/09/18 04:07:49;;;;;;;8.60;7.50;;;;;;;18.20;100.00;101278.17;104723;1267;67211;-62
2023/09/18 04:10:18;;;;;;;10.70;7.20;;;;;;;18.59;100.00;101258.39;104923;1267;72434;-63
2023/09/18 04:12:46;;;;;;;9.30;7.30;;;;;;;19.01;100.00;101240.04;104312;1268;61284;-61
2023/09/18 04:15:14;;;;;;;9.10;7.10;;;;;;;19.48;100.00;101227.68;104859;1268;61285;-63
2023/09/18 04:17:41;;;;;;;11.20;7.40;;;;;;;20.00;100.00;101209.13;104361;1267;73567;-61
2023/09/18 04:20:09;;;;;;;9.10;7.40;;;;;;;20.55;100.00;101197.00;105003;1267;65674;-66
2023/09/18 04:22:41;;;;;;;9.50;7.50;;;;;;;21.12;100.00;101184.35;104578;1267;71026;-63
2023/09/18 04:25:08;;;;;;;7.80;6.50;;;;;;;21.67;100.00;101178.30;104335;1268;61201;-63
2023/09/18 04:27:35;;;;;;;8.20;7.20;;;;;;;22.10;100.00;101169.34;104741;1270;61367;-61
2023/09/18 04:30:03;;;;;;;10.30;7.10;;;;;;;22.50;100.00;101165.23;104791;1267;76310;-62
2023/09/18 04:32:30;;;;;;;7.00;6.30;;;;;;;22.94;100.00;101168.55;104454;1273;67006;-65
2023/09/18 04:34:58;;;;;;;7.80;6.90;;;;;;;23.43;100.00;101168.83;104545;1271;72683;-64
2023/09/18 04:37:25;;;;;;;10.10;6.60;;;;;;;23.86;100.00;101165.08;104668;1267;61246;-61
2023/09/18 04:39:52;;;;;;;8.10;7.30;;;;;;;24.15;100.00;101165.70;104655;1267;61191;-65
2023/09/18 04:42:19;;;;;;;9.80;7.70;;;;;;;24.40;100.00;101164.04;104732;1268;73721;-62
2023/09/18 04:44:46;;;;;;;10.70;7.70;;;;;;;24.73;100.00;101161.66;104535;1267;67122;-61
2023/09/18 04:47:13;;;;;;;8.60;7.60;;;;;;;25.14;100.00;101161.59;104853;1267;71406;-65
2023/09/18 04:49:40;;;;;;;12.30;8.20;;;;;;;25.55;100.00;101162.87;104376;1268;61454;-63
2023/09/18 04:52:07;;;;;;;10.70;8.20;;;;;;;25.88;100.00;101159.59;104499;1267;59691;-64
2023/09/18 04:54:34;;;;;;;9.90;8.10;;;;;;;26.18;97.93;101155.59;104760;1270;73586;-63
2023/09/18 04:57:01;;;;;;;11.30;8.60;;;;;;;26.38;91.98;101156.84;104629;1270;66937;-65
2023/09/18 04:59:29;;;;;;;10.00;8.20;;;;;;;26.55;89.00;101158.80;104524;1268;72981;-60
2023/09/18 05:01:56;;;;;;;9.90;8.10;;;;;;;26.66;84.14;101155.16;104682;1270;61298;-61
2023/09/18 05:04:23;;;;;;;10.60;8.00;;;;;;;26.69;81.55;101159.01;104623;1267;61253;-62
2023/09/18 05:06:50;;;;;;;8.40;7.50;;;;;;;26.40;78.88;101155.41;104326;1269;74378;-60
2023/09/18 05:09:17;;;;;;;9.40;7.60;;;;;;;25.85;81.91;101156.85;104610;1267;66585;-64
2023/09/18 05:11:44;;;;;;;8.60;7.80;;;;;;;25.28;87.00;101158.09;105122;1273;71268;-62
2023/09/18 05:14:12;;;;;;;10.20;8.20;;;;;;;24.76;93.59;101158.91;104716;1273;61255;-61
2023/09/18 05:16:39;;;;;;;11.30;6.70;;;;;;;24.29;99.58;101162.23;105158;1267;61289;-62
2023/09/18 05:19:06;;;;;;;9.80;8.40;;;;;;;23.88;100.00;101159.16;104772;1271;75268;-60
2023/09/18 05:21:33;;;;;;;9.90;8.40;;;;;;;23.54;100.00;101161.04;104701;1268;67090;-62
2023/09/18 05:24:00;;;;;;;11.40;8.30;;;;;;;23.22;100.00;101160.41;105222;1268;72879;-62
2023/09/18 05:26:28;;;;;;;10.70;8.80;;;;;;;22.89;100.00;101160.45;104885;1273;61269;-62
2023/09/18 05:28:56;;;;;;;12.20;9.40;;;;;;;22.67;100.00;101157.55;104732;1272;61336;-63
2023/09/18 05:31:24;;;;;;;11.30;9.90;;;;;;;22.41;100.00;101157.22;104901;1268;74095;-62
2023/09/18 05:33:51;;;;;;;12.80;10.50;;;;;;;22.16;100.00;101157.55;104652;1272;65739;-62
2023/09/18 05:36:18;;;;;;;10.20;9.10;;;;;;;21.95;100.00;101159.59;104633;1268;72738;-64
2023/09/18 05:38:45;;;;;;;12.70;9.70;;;;;;;21.74;100.00;101157.73;104986;1268;61292;-63
2023/09/18 05:41:12;;;;;;;13.90;9.90;;;;;;;21.51;100.00;101162.47;104551;1268;61326;-61
2023/09/18 05:43:39;;;;;;;14.90;9.80;;;;;;;21.31;100.00;101161.00;105061;1267;73752;-63
2023/09/18 05:46:06;;;;;;;10.70;9.30;;;;;;;21.27;100.00;101163.32;105027;1267;67361;-62
2023/09/18 05:48:33;;;;;;;10.80;9.50;;;;;;;21.21;100.00;101161.36;104688;1273;72504;-63
2023/09/18 05:51:00;;;;;;;9.50;8.50;;;;;;;21.15;100.00;101156.11;104889;1268;61043;-63
2023/09/18 05:53:28;;;;;;;11.50;9.30;;;;;;;21.21;100.00;101158.99;104748;1273;61281;-63
2023/09/18 05:55:57;;;;;;;10.30;8.40;;;;;;;21.33;100.00;101158.27;105266;1268;73578;-61
2023/09/18 05:58:26;;;;;;;10.60;9.50;;;;;;;21.47;100.00;101157.24;104538;1267;67258;-61
2023/09/18 06:00:53;;;;;;;11.40;8.50;;;;;;;21.64;100.00;101152.18;104633;1268;73049;-61
2023/09/18 06:03:21;;;;;;;13.40;8.50;;;;;;;21.79;100.00;101155.14;105094;1267;61189;-65
2023/09/18 06:05:49;;;;;;;11.20;8.70;;;;;;;21.90;100.00;101151.20;104701;1273;61164;-61
2023/09/18 06:08:16;;;;;;;12.40;9.00;;;;;;;21.99;100.00;101154.89;104586;1268;74756;-61
2023/09/18 06:10:43;;;;;;;13.20;7.90;;;;;;;22.21;100.00;101152.34;104740;1272;67252;-60
2023/09/18 06:13:10;;;;;;;9.90;8.10;;;;;;;22.80;100.00;101149.56;105108;1272;72432;-60
2023/09/18 06:15:37;;;;;;;13.30;8.80;;;;;;;23.57;100.00;101146.66;104702;1268;61371;-62
2023/09/18 06:18:06;;;;;;;15.90;7.90;;;;;;;24.11;100.00;101143.66;104572;1267;61870;-60
2023/09/18 06:20:33;;;;;;;11.00;8.90;;;;;;;24.60;100.00;101142.10;104818;1267;74487;-63
2023/09/18 06:23:00;;;;;;;12.30;7.90;;;;;;;25.01;100.00;101141.05;104724;1267;65712;-61
2023/09/18 06:25:28;;;;;;;14.10;9.70;;;;;;;25.36;100.00;101145.48;104507;1271;71272;-61
2023/09/18 06:27:55;;;;;;;12.50;9.00;;;;;;;25.89;100.00;101144.45;104555;1273;61774;-60
2023/09/18 06:30:22;;;;;;;13.60;9.10;;;;;;;26.46;99.89;101143.60;104338;1267;61216;-60
2023/09/18 06:32:49;;;;;;;11.00;8.60;;;;;;;27.09;94.94;101145.64;105021;1271;74457;-64
2023/09/18 06:35:16;;;;;;;10.60;8.10;;;;;;;27.65;85.91;101142.71;104367;1268;67150;-62
2023/09/18 06:37:43;;;;;;;8.80;7.70;;;;;;;28.06;78.73;101145.98;104158;1270;72728;-63
2023/09/18 06:40:11;;;;;;;9.90;8.40;;;;;;;28.34;73.93;101143.65;104316;1273;61303;-62
2023/09/18 06:42:39;;;;;;;9.50;8.10;;;;;;;28.47;67.38;101143.34;104569;1270;61176;-62
2023/09/18 06:45:07;;;;;;;13.80;9.10;;;;;;;28.77;66.78;101138.29;104366;1267;75315;-61
2023/09/18 06:47:34;;;;;;;10.50;8.00;;;;;;;29.15;62.47;101143.40;104516;1270;66058;-64
2023/09/18 06:50:04;;;;;;;11.30;7.90;;;;;;;29.44;61.32;101139.46;104274;1268;73276;-62
2023/09/18 06:52:31;;;;;;;11.50;7.80;;;;;;;29.82;56.92;101141.34;104772;1268;61292;-62
2023/09/18 06:54:58;;;;;;;11.70;7.70;;;;;;;30.16;54.86;101136.16;104586;1267;61223;-64
2023/09/18 06:57:25;;;;;;;7.30;6.50;;;;;;;30.28;52.41;101135.45;104402;1270;66127;-62
2023/09/18 06:59:52;;;;;;;9.50;7.70;;;;;;;30.44;51.46;101138.46;104735;1270;66128;-63
2023/09/18 07:02:19;;;;;;;8.20;6.70;;;;;;;30.54;50.26;101138.95;104832;1268;63940;-62
2023/09/18 07:04:46;;;;;;;10.00;8.90;;;;;;;30.69;49.37;101139.02;104505;1268;61370;-62
2023/09/18 07:07:14;;;;;;;9.40;7.10;;;;;;;30.81;49.01;101136.98;104326;1267;61169;-62
2023/09/18 07:09:41;;;;;;;8.20;6.60;;;;;;;30.88;48.40;101133.95;104449;1267;75180;-62
2023/09/18 07:12:28;;;;;;;7.50;6.70;;;;;;;30.85;48.25;101137.38;104656;1271;61364;-62
2023/09/18 07:14:55;;;;;;;7.90;7.00;;;;;;;30.92;47.79;101134.03;104784;1271;63947;-63
2023/09/18 07:17:22;;;;;;;9.30;7.10;;;;;;;31.03;46.98;101133.87;104601;1268;61453;-62
2023/09/18 07:19:49;;;;;;;8.60;7.00;;;;;;;31.32;47.59;101129.16;104840;1267;61135;-62
2023/09/18 07:22:16;;;;;;;7.70;6.80;;;;;;;31.64;46.09;101130.96;105015;1268;66628;-63
2023/09/18 07:24:45;;;;;;;9.10;7.60;;;;;;;31.71;45.24;101133.92;105168;1270;67127;-63
2023/09/18 07:27:12;;;;;;;8.30;7.10;;;;;;;31.79;44.77;101132.94;104682;1272;64618;-62
2023/09/18 07:29:40;;;;;;;9.60;7.30;;;;;;;31.96;45.60;101129.23;104646;1268;61291;-62
2023/09/18 07:32:09;;;;;;;7.30;6.40;;;;;;;32.10;44.25;101129.12;104803;1268;61368;-64
2023/09/18 07:34:36;;;;;;;7.70;6.60;;;;;;;32.16;42.07;101127.64;104626;1271;76124;-64
2023/09/18 07:37:03;;;;;;;8.00;6.80;;;;;;;32.33;42.19;101130.17;104633;1272;65878;-63
2023/09/18 07:39:30;;;;;;;6.50;5.70;;;;;;;32.46;40.84;101125.08;104778;1272;62513;-63
2023/09/18 07:41:57;;;;;;;6.40;5.80;;;;;;;32.49;39.11;101121.92;104941;1273;61353;-65
2023/09/18 07:44:24;;;;;;;8.30;6.30;;;;;;;32.36;38.46;101120.49;104621;1267;61211;-62
2023/09/18 07:46:54;;;;;;;7.40;5.70;;;;;;;32.36;38.72;101118.27;105048;1268;65629;-62
2023/09/18 07:49:21;;;;;;;6.90;6.10;;;;;;;32.46;38.27;101115.94;104316;1268;61274;-60
2023/09/18 07:51:48;;;;;;;6.60;5.80;;;;;;;32.43;37.71;101114.45;104743;1268;65424;-63
2023/09/18 07:54:16;;;;;;;6.80;5.90;;;;;;;32.34;37.12;101112.73;104883;1268;61393;-64
2023/09/18 07:56:43;;;;;;;7.60;6.30;;;;;;;32.30;37.94;101113.91;104841;1272;61375;-62
2023/09/18 07:59:10;;;;;;;7.00;5.80;;;;;;;32.31;39.37;101111.98;104721;1268;73485;-63
2023/09/18 08:01:38;;;;;;;6.70;6.00;;;;;;;32.50;38.62;101113.35;104429;1272;61432;-62
2023/09/18 08:04:05;;;;;;;8.50;5.90;;;;;;;32.55;36.95;101110.20;105295;1267;64116;-62
2023/09/18 08:06:32;;;;;;;6.40;5.80;;;;;;;32.42;37.00;101108.32;104571;1272;61170;-62
2023/09/18 08:09:00;;;;;;;6.60;5.90;;;;;;;32.29;37.01;101106.26;104426;1268;61295;-61
2023/09/18 08:11:27;;;;;;;6.90;5.80;;;;;;;32.15;36.56;101104.39;104724;1272;65915;-63
2023/09/18 08:13:55;;;;;;;8.40;6.40;;;;;;;32.16;37.19;101100.75;105027;1268;70714;-61
2023/09/18 08:16:22;;;;;;;6.30;5.20;;;;;;;32.30;37.25;101100.07;104452;1268;74518;-62
2023/09/18 08:18:50;;;;;;;8.30;5.40;;;;;;;32.36;36.57;101096.52;105077;1268;61515;-64
2023/09/18 08:27:24;;;;;;;5.30;4.80;;;;;;;32.88;35.25;101084.65;103353;1280;600930;-64
2023/09/18 08:29:52;;;;;;;6.20;5.10;;;;;;;33.19;33.95;101089.53;104901;1270;59207;-64
2023/09/18 08:32:20;;;;;;;5.80;5.00;;;;;;;33.46;33.80;101087.98;104838;1266;58210;-61
2023/09/18 08:34:48;;;;;;;6.10;5.50;;;;;;;33.49;33.41;101086.30;104722;1269;62185;-60
2023/09/18 08:37:16;;;;;;;6.60;4.50;;;;;;;33.40;32.33;101082.44;104900;1267;59570;-60
2023/09/18 08:39:44;;;;;;;5.40;4.30;;;;;;;33.19;31.95;101080.70;104847;1269;62629;-62
2023/09/18 08:42:12;;;;;;;6.30;4.50;;;;;;;33.06;32.32;101080.42;104676;1266;59331;-62
2023/09/18 08:44:40;;;;;;;5.10;4.20;;;;;;;33.09;32.13;101077.56;104924;1271;59416;-63
2023/09/18 08:47:08;;;;;;;4.80;3.90;;;;;;;33.05;31.52;101076.00;104894;1266;63281;-63
2023/09/18 08:49:36;;;;;;;5.90;4.10;;;;;;;33.01;31.26;101076.19;104771;1268;60685;-61
2023/09/18 08:52:04;;;;;;;4.80;4.30;;;;;;;33.10;31.69;101073.50;104988;1269;63753;-64
2023/09/18 08:54:33;;;;;;;4.60;4.20;;;;;;;33.35;30.93;101070.20;104778;1267;59744;-61
2023/09/18 08:57:01;;;;;;;5.20;4.40;;;;;;;33.78;30.98;101068.25;105177;1268;59709;-61
2023/09/18 08:59:29;;;;;;;4.90;3.80;;;;;;;34.25;30.25;101064.70;105036;1266;64256;-61
2023/09/18 09:01:56;;;;;;;4.30;3.40;;;;;;;34.44;28.57;101065.31;105013;1264;59597;-61
2023/09/18 09:04:25;;;;;;;4.30;3.50;;;;;;;34.40;28.27;101065.27;105103;1267;63805;-64
2023/09/18 09:06:53;;;;;;;4.30;3.80;;;;;;;34.28;28.14;101061.89;105806;1260;59670;-61
2023/09/18 09:09:21;;;;;;;4.80;3.50;;;;;;;34.09;28.44;101062.33;105919;1256;59685;-62
2023/09/18 09:11:51;;;;;;;4.40;3.50;;;;;;;34.00;28.71;101060.19;105911;1253;62924;-63
2023/09/18 09:14:22;;;;;;;4.40;3.40;;;;;;;34.13;28.57;101060.48;106067;1256;59675;-61
2023/09/18 09:16:50;;;;;;;6.80;3.60;;;;;;;34.45;28.23;101059.96;105911;1255;62573;-61
2023/09/18 09:19:18;;;;;;;5.40;4.40;;;;;;;34.76;27.68;101057.05;105916;1253;59279;-62
2023/09/18 09:21:46;;;;;;;7.60;3.30;;;;;;;34.79;27.39;101056.10;105689;1258;59507;-63
2023/09/18 09:24:14;;;;;;;5.40;3.60;;;;;;;34.73;26.46;101058.45;105785;1257;65546;-64
2023/09/18 09:26:42;;;;;;;5.90;4.50;;;;;;;34.44;26.16;101057.66;105647;1257;59706;-64
2023/09/18 09:29:18;;;;;;;4.70;3.50;;;;;;;33.93;26.10;101059.86;105713;1257;65216;-65
2023/09/18 09:31:46;;;;;;;5.40;3.20;;;;;;;33.25;27.75;101058.98;105826;1257;59704;-64
2023/09/18 09:34:25;;;;;;;4.10;3.50;;;;;;;32.74;28.21;101056.35;105778;1259;59596;-64
2023/09/18 09:36:54;;;;;;;4.60;3.80;;;;;;;32.41;28.76;101058.42;105649;1263;74815;-65
2023/09/18 09:39:24;;;;;;;4.00;3.30;;;;;;;32.22;28.52;101057.17;105725;1258;59932;-62
2023/09/18 09:41:52;;;;;;;4.30;3.60;;;;;;;31.95;27.98;101053.83;105642;1259;72710;-62
2023/09/18 09:44:23;;;;;;;4.60;3.20;;;;;;;31.87;28.51;101053.57;105608;1255;59031;-61
2023/09/18 09:46:51;;;;;;;5.10;3.60;;;;;;;32.01;28.99;101057.50;105489;1257;59640;-61
2023/09/18 09:49:19;;;;;;;5.80;5.10;;;;;;;31.99;28.60;101056.03;105827;1260;62973;-64
2023/09/18 09:51:47;;;;;;;6.20;3.70;;;;;;;31.95;28.66;101054.61;105957;1257;59713;-63
2023/09/18 09:54:15;;;;;;;5.20;3.70;;;;;;;31.82;28.90;101052.38;105795;1254;72730;-62
2023/09/18 09:56:45;;;;;;;5.00;3.30;;;;;;;31.77;28.86;101054.48;105375;1267;59250;-62
2023/09/18 09:59:14;;;;;;;4.40;3.30;;;;;;;31.71;29.28;101053.13;105568;1257;59485;-62
2023/09/18 10:01:44;;;;;;;4.20;3.20;;;;;;;31.68;29.35;101053.73;105688;1254;73002;-62
2023/09/18 10:04:13;;;;;;;6.90;3.80;;;;;;;31.75;29.42;101052.39;105822;1257;66368;-63
2023/09/18 10:06:43;;;;;;;4.60;3.80;;;;;;;32.04;29.43;101049.48;105881;1260;65246;-63
2023/09/18 10:09:12;;;;;;;4.30;3.50;;;;;;;32.52;28.82;101044.66;105673;1253;59611;-62
2023/09/18 10:11:52;;;;;;;5.00;4.30;;;;;;;32.97;28.42;101043.98;105642;1253;59650;-62
2023/09/18 10:14:21;;;;;;;6.40;4.40;;;;;;;33.29;28.44;101039.63;105455;1252;66065;-64
2023/09/18 10:16:51;;;;;;;7.00;5.00;;;;;;;33.57;27.11;101040.83;105370;1257;59692;-62
2023/09/18 10:19:25;;;;;;;10.30;9.30;;;;;;;33.60;26.32;101042.85;105644;1257;62566;-63
2023/09/18 10:22:10;;;;;;;6.20;4.90;;;;;;;33.55;25.98;101038.27;105416;1257;59644;-63
2023/09/18 10:24:41;;;;;;;5.20;4.00;;;;;;;33.17;26.02;101037.16;105731;1256;59574;-62
2023/09/18 10:27:09;;;;;;;5.30;3.00;;;;;;;32.81;26.76;101037.95;105532;1260;66974;-63
2023/09/18 10:29:36;;;;;;;4.30;3.40;;;;;;;32.81;26.70;101036.34;105596;1259;59279;-63
2023/09/18 10:32:07;;;;;;;4.60;3.00;;;;;;;32.80;26.92;101033.82;105765;1258;65666;-63
2023/09/18 10:34:36;;;;;;;7.30;6.30;;;;;;;32.81;26.99;101034.23;105717;1259;59699;-61
2023/09/18 10:37:07;;;;;;;6.10;4.20;;;;;;;32.70;26.94;101034.73;105683;1258;59487;-62
2023/09/18 10:39:37;;;;;;;5.90;4.70;;;;;;;32.50;27.23;101030.78;105845;1257;66851;-63
2023/09/18 10:42:07;;;;;;;4.50;3.30;;;;;;;32.44;27.84;101027.65;105769;1256;59814;-65
2023/09/18 10:44:35;;;;;;;4.30;2.90;;;;;;;32.53;26.50;101023.67;105761;1255;65715;-63
2023/09/18 10:47:05;;;;;;;3.70;2.70;;;;;;;32.51;25.52;101018.23;105862;1257;59644;-64
2023/09/18 10:49:35;;;;;;;3.80;2.80;;;;;;;32.32;25.00;101022.22;105653;1259;59294;-63
2023/09/18 10:52:03;;;;;;;4.30;2.80;;;;;;;32.13;25.75;101028.38;105750;1257;66409;-62
2023/09/18 10:54:31;;;;;;;3.60;2.80;;;;;;;32.10;26.02;101022.36;105759;1257;61149;-63
2023/09/18 10:57:01;;;;;;;4.10;2.80;;;;;;;31.99;25.86;101021.35;105682;1257;66829;-62
2023/09/18 10:59:30;;;;;;;3.90;2.70;;;;;;;31.85;25.84;101016.67;105749;1257;59688;-63
2023/09/18 11:02:05;;;;;;;4.70;3.20;;;;;;;31.72;25.89;101012.60;105771;1257;59718;-64
2023/09/18 11:04:33;;;;;;;4.00;3.20;;;;;;;31.78;26.56;101011.34;105599;1253;67178;-62
2023/09/18 11:07:03;;;;;;;3.70;3.30;;;;;;;31.92;25.96;101008.41;105594;1261;59536;-64
2023/09/18 11:09:33;;;;;;;4.70;2.90;;;;;;;31.92;26.11;101007.39;105159;1260;72475;-63
2023/09/18 11:12:04;;;;;;;;;;;;;;;32.08;27.13;101000.40;105741;1259;59616;-64
2023/09/18 11:14:49;;;;;;;3.70;3.20;;;;;;;32.43;27.37;100997.40;105726;1254;59718;-62
2023/09/18 11:17:35;;;;;;;3.70;3.00;;;;;;;32.59;26.04;100994.34;105736;1257;75571;-63
2023/09/18 11:20:17;;;;;;;3.90;3.10;;;;;;;32.39;25.28;100991.66;105658;1258;60144;-62
2023/09/18 11:22:49;;;;;;;4.70;2.40;;;;;;;32.09;25.31;100992.89;105422;1264;66279;-63